createdAt,value
2023-04-18T00:01:28.992Z,15.60
2023-04-18T00:03:58.072Z,16.00
2023-04-18T00:06:25.948Z,14.80
2023-04-18T00:08:53.900Z,20.30
2023-04-18T00:11:21.810Z,18.80
2023-04-18T00:13:49.547Z,18.50
2023-04-18T00:16:17.422Z,20.10
2023-04-18T00:18:45.373Z,20.40
2023-04-18T00:21:13.851Z,18.50
2023-04-18T00:23:41.712Z,24.90
2023-04-18T00:26:09.407Z,19.30
2023-04-18T00:28:37.871Z,19.60
2023-04-18T00:31:05.734Z,23.40
2023-04-18T00:33:34.604Z,20.30
2023-04-18T00:36:03.371Z,21.20
2023-04-18T00:38:31.097Z,20.70
2023-04-18T00:40:58.865Z,19.40
2023-04-18T00:43:26.938Z,19.10
2023-04-18T00:45:57.027Z,22.10
2023-04-18T00:48:25.664Z,18.00
2023-04-18T00:50:55.122Z,19.40
2023-04-18T00:53:23.068Z,20.20
2023-04-18T00:55:51.358Z,17.00
2023-04-18T00:58:19.120Z,22.60
2023-04-18T01:00:47.201Z,20.70
2023-04-18T01:03:18.648Z,22.50
2023-04-18T01:05:47.162Z,20.20
2023-04-18T01:08:15.104Z,19.70
2023-04-18T01:10:42.920Z,19.40
2023-04-18T01:13:15.980Z,22.10
2023-04-18T01:15:45.750Z,20.80
2023-04-18T01:18:19.173Z,19.50
2023-04-18T01:20:49.080Z,19.40
2023-04-18T01:23:18.127Z,21.40
2023-04-18T01:25:49.210Z,22.40
2023-04-18T01:28:21.287Z,19.70
2023-04-18T01:30:50.344Z,18.70
2023-04-18T01:33:18.801Z,19.70
2023-04-18T01:35:48.217Z,20.90
2023-04-18T01:38:15.962Z,20.00
2023-04-18T01:40:44.183Z,18.80
2023-04-18T01:43:12.018Z,17.40
2023-04-18T01:45:39.832Z,19.40
2023-04-18T01:48:09.853Z,20.80
2023-04-18T01:50:37.646Z,20.50
2023-04-18T01:53:05.623Z,22.60
2023-04-18T01:55:33.557Z,19.60
2023-04-18T01:58:01.426Z,19.40
2023-04-18T02:00:29.312Z,20.70
2023-04-18T02:02:59.509Z,21.00
2023-04-18T02:05:27.616Z,18.20
2023-04-18T02:07:55.945Z,19.70
2023-04-18T02:10:24.487Z,19.70
2023-04-18T02:12:52.371Z,20.50
2023-04-18T02:15:21.116Z,19.80
2023-04-18T02:17:49.176Z,21.00
2023-04-18T02:20:17.292Z,21.20
2023-04-18T02:22:46.310Z,20.00
2023-04-18T02:25:14.120Z,19.00
2023-04-18T02:27:41.940Z,18.90
2023-04-18T02:30:10.078Z,22.10
2023-04-18T02:32:37.968Z,21.60
2023-04-18T02:35:06.562Z,19.00
2023-04-18T02:37:34.507Z,21.40
2023-04-18T02:40:05.018Z,20.20
2023-04-18T02:42:33.121Z,19.20
2023-04-18T02:45:02.286Z,20.60
2023-04-18T02:47:33.395Z,21.70
2023-04-18T02:50:06.641Z,20.70
2023-04-18T02:52:34.855Z,19.50
2023-04-18T02:55:03.033Z,18.90
2023-04-18T13:02:41.691Z,38.20
2023-04-18T13:05:11.979Z,32.00
2023-04-18T13:07:40.739Z,33.10
2023-04-18T13:10:09.594Z,29.60
2023-04-18T13:12:38.046Z,31.50
2023-04-18T13:15:07.260Z,27.70
2023-04-18T13:17:38.830Z,29.10
2023-04-18T13:20:10.645Z,29.40
2023-04-18T13:22:39.582Z,28.90
2023-04-18T13:25:10.400Z,29.20
2023-04-18T13:27:41.391Z,30.30
2023-04-18T13:30:10.989Z,32.10
2023-04-18T13:32:40.520Z,28.00
2023-04-18T13:35:10.893Z,29.50
2023-04-18T13:37:39.173Z,24.30
2023-04-18T13:40:07.970Z,29.30
2023-04-18T13:42:37.315Z,27.30
2023-04-18T13:45:05.861Z,26.00
2023-04-18T13:47:38.683Z,29.20
2023-04-18T13:50:07.369Z,28.10
2023-04-18T13:52:35.392Z,26.30
2023-04-18T13:55:03.981Z,26.50
2023-04-18T13:57:33.788Z,27.00
2023-04-18T14:00:01.645Z,24.20
2023-04-18T14:02:40.746Z,22.50
2023-04-18T14:05:09.362Z,23.00
2023-04-18T14:07:38.439Z,25.40
2023-04-18T14:10:06.862Z,25.30
2023-04-18T14:12:35.311Z,29.30
2023-04-18T14:15:03.502Z,26.00
2023-04-18T14:17:31.470Z,25.90
2023-04-18T14:19:59.399Z,27.70
2023-04-18T14:22:27.180Z,24.70
2023-04-18T14:24:56.182Z,23.10
2023-04-18T14:29:59.789Z,23.10
2023-04-18T14:32:27.678Z,21.10
2023-04-18T14:34:56.516Z,22.00
2023-04-18T14:37:24.559Z,20.20
2023-04-18T14:39:52.567Z,22.70
2023-04-18T14:42:20.878Z,23.10
2023-04-18T14:44:48.662Z,21.50
2023-04-18T14:47:16.480Z,22.40
2023-04-18T14:49:44.204Z,24.60
2023-04-18T14:52:12.222Z,21.10
2023-04-18T14:54:40.082Z,20.80
2023-04-18T14:57:08.520Z,21.00
2023-04-18T14:59:36.264Z,22.00
2023-04-18T15:02:04.120Z,19.60
2023-04-18T15:04:32.118Z,24.30
2023-04-18T15:06:59.899Z,21.20
2023-04-18T15:09:28.462Z,21.30
2023-04-18T15:11:58.260Z,23.00
2023-04-18T15:14:26.123Z,22.10
2023-04-18T15:16:54.044Z,22.80
2023-04-18T15:19:21.883Z,20.40
2023-04-18T15:21:49.677Z,19.80
2023-04-18T15:24:17.469Z,21.70
2023-04-18T15:26:45.685Z,21.30
2023-04-18T15:29:13.492Z,17.90
2023-04-18T15:31:41.546Z,22.80
2023-04-18T15:34:09.623Z,20.70
2023-04-18T15:36:37.559Z,25.70
2023-04-18T15:39:05.911Z,24.90
2023-04-18T15:41:35.548Z,23.30
2023-04-18T15:44:04.933Z,23.50
2023-04-18T15:46:34.798Z,21.60
2023-04-18T15:49:02.838Z,25.10
2023-04-18T15:51:31.022Z,24.10
2023-04-18T15:53:59.033Z,22.20
2023-04-18T15:56:27.243Z,23.60
2023-04-18T15:58:56.539Z,20.90
2023-04-18T16:01:24.309Z,24.40
2023-04-18T16:03:52.358Z,24.40
2023-04-18T16:06:23.587Z,22.80
2023-04-18T16:08:51.363Z,24.50
2023-04-18T16:11:19.844Z,24.60
2023-04-18T16:13:47.803Z,22.50
2023-04-18T16:16:15.858Z,26.80
2023-04-18T16:18:43.664Z,24.20
2023-04-18T16:21:17.418Z,24.30
2023-04-18T16:23:45.148Z,23.40
2023-04-18T16:26:12.897Z,23.00
2023-04-18T16:28:42.055Z,23.50
2023-04-18T16:31:09.930Z,21.80
2023-04-18T16:33:38.983Z,24.10
2023-04-18T16:36:07.334Z,21.70
2023-04-18T16:38:35.143Z,24.80
2023-04-18T16:41:03.756Z,23.60
2023-04-18T16:43:36.298Z,26.60
2023-04-18T16:46:04.421Z,25.00
2023-04-18T16:48:32.918Z,22.50
2023-04-18T16:51:01.208Z,23.80
2023-04-18T16:53:29.001Z,26.80
2023-04-18T16:55:56.800Z,27.20
2023-04-18T16:58:24.584Z,24.50
2023-04-18T17:00:52.836Z,24.10
2023-04-18T17:03:21.002Z,23.80
2023-04-18T17:05:49.158Z,25.70
2023-04-18T17:08:16.972Z,24.60
2023-04-18T17:10:44.783Z,24.80
2023-04-18T17:13:12.638Z,22.70
2023-04-18T17:15:43.024Z,23.90
2023-04-18T17:18:10.976Z,23.40
2023-04-18T17:20:38.870Z,27.00
2023-04-18T17:23:06.757Z,25.50
2023-04-18T17:25:35.060Z,25.30
2023-04-18T17:28:05.995Z,23.90
2023-04-18T17:30:33.843Z,23.00
2023-04-18T17:33:01.765Z,23.10
2023-04-18T17:35:29.827Z,24.60
2023-04-18T17:37:57.989Z,23.90
2023-04-18T17:40:26.277Z,25.10
2023-04-18T17:42:54.140Z,25.00
2023-04-18T17:45:22.101Z,26.00
2023-04-18T17:47:50.988Z,23.40
2023-04-18T17:50:19.609Z,27.10
2023-04-18T17:52:49.819Z,24.30
2023-04-18T17:55:18.110Z,28.20
2023-04-18T17:57:46.560Z,28.90
2023-04-18T18:00:15.906Z,40.40
2023-04-18T18:02:44.596Z,52.30
2023-04-18T18:05:13.551Z,53.70
2023-04-18T18:07:47.279Z,64.50
2023-04-18T18:10:19.063Z,63.00
2023-04-18T18:12:47.033Z,62.90
2023-04-18T18:15:15.041Z,59.90
2023-04-18T18:17:42.919Z,58.00
2023-04-18T18:20:11.184Z,55.10
2023-04-18T18:22:39.286Z,50.70
2023-04-18T18:25:07.965Z,38.60
2023-04-18T18:27:36.648Z,38.90
2023-04-18T18:30:05.850Z,32.70
2023-04-18T18:32:34.319Z,25.70
2023-04-18T18:35:02.701Z,26.60
2023-04-18T18:37:30.841Z,26.90
2023-04-18T18:40:00.213Z,25.10
2023-04-18T18:42:30.550Z,25.20
2023-04-18T18:44:58.310Z,24.00
2023-04-18T18:47:26.498Z,26.40
2023-04-18T18:49:54.460Z,26.20
2023-04-18T18:52:24.751Z,25.50
2023-04-18T18:54:52.773Z,21.80
2023-04-18T18:57:21.385Z,25.80
2023-04-18T18:59:54.511Z,20.70
2023-04-18T19:02:24.012Z,21.90
2023-04-18T19:04:52.180Z,25.70
2023-04-18T19:07:20.398Z,21.00
2023-04-18T19:09:48.309Z,24.60
2023-04-18T19:12:16.290Z,22.10
2023-04-18T19:15:17.422Z,20.40
2023-04-18T19:17:49.704Z,25.20
2023-04-18T19:20:19.376Z,20.40
2023-04-18T19:23:03.532Z,22.70
2023-04-18T19:29:25.240Z,21.40
2023-04-18T19:32:25.539Z,21.00
2023-04-18T19:35:25.743Z,22.70
2023-04-18T19:38:01.370Z,25.90
2023-04-18T19:40:29.908Z,20.70
2023-04-18T19:42:58.135Z,23.90
2023-04-18T19:45:26.370Z,20.90
2023-04-18T19:47:54.203Z,24.10
2023-04-18T19:50:22.064Z,23.20
2023-04-18T19:52:50.057Z,25.30
2023-04-18T19:55:17.847Z,22.90
2023-04-18T19:57:45.884Z,20.60
2023-04-18T20:00:14.518Z,22.30
2023-04-18T20:02:43.253Z,23.10
2023-04-18T20:05:12.891Z,22.50
2023-04-18T20:07:41.814Z,22.80
2023-04-18T20:10:10.720Z,22.80
2023-04-18T20:12:38.471Z,23.40
2023-04-18T20:15:07.227Z,19.30
2023-04-18T20:17:35.430Z,19.90
2023-04-18T20:20:04.641Z,23.10
2023-04-18T20:22:32.539Z,19.20
2023-04-18T20:25:01.743Z,19.00
2023-04-18T20:27:30.059Z,22.30
2023-04-18T20:29:57.805Z,19.10
2023-04-18T20:32:27.186Z,20.30
2023-04-18T20:34:55.017Z,19.20
2023-04-18T20:37:23.298Z,21.40
2023-04-18T20:39:54.690Z,20.40
2023-04-18T20:42:22.714Z,18.60
2023-04-18T20:44:50.634Z,20.00
2023-04-18T20:47:18.688Z,21.30
2023-04-18T20:49:46.903Z,20.40
2023-04-18T20:52:14.933Z,19.70
2023-04-18T20:54:42.879Z,23.10
2023-04-18T20:57:10.660Z,19.30
2023-04-18T20:59:38.610Z,23.50
2023-04-18T21:02:07.215Z,22.20
2023-04-18T21:04:35.267Z,26.00
2023-04-18T21:07:03.275Z,21.20
2023-04-18T21:09:36.330Z,21.70
2023-04-18T21:12:05.423Z,20.60
2023-04-18T21:14:33.185Z,19.30
2023-04-18T21:17:01.755Z,20.60
2023-04-18T21:19:29.500Z,18.90
2023-04-18T21:21:57.364Z,20.40
2023-04-18T21:24:25.215Z,19.60
2023-04-18T21:26:53.292Z,18.80
2023-04-18T21:29:21.682Z,18.00
2023-04-18T21:31:51.611Z,18.50
2023-04-18T21:34:20.095Z,18.90
2023-04-18T21:36:48.008Z,21.40
2023-04-18T21:39:16.199Z,18.40
2023-04-18T21:41:44.619Z,17.30
2023-04-18T21:44:12.958Z,19.40
2023-04-18T21:46:41.008Z,20.70
2023-04-18T21:49:08.731Z,20.80
2023-04-18T21:51:36.580Z,18.10
2023-04-18T21:54:04.673Z,19.50
2023-04-18T21:56:32.449Z,20.80
2023-04-18T21:59:00.373Z,22.90
2023-04-18T22:01:28.297Z,21.60
2023-04-18T22:03:56.297Z,21.00
2023-04-18T22:06:24.286Z,21.90
2023-04-18T22:08:52.292Z,19.60
2023-04-18T22:11:20.222Z,21.50
2023-04-18T22:13:50.134Z,20.20
2023-04-18T22:16:17.938Z,18.60
2023-04-18T22:18:45.719Z,20.80
2023-04-18T22:21:13.511Z,20.40
2023-04-18T22:23:41.278Z,19.70
2023-04-18T22:26:09.623Z,21.00
2023-04-18T22:28:37.929Z,23.60
2023-04-18T22:31:05.847Z,24.20
2023-04-18T22:33:34.262Z,19.50
2023-04-18T22:36:02.547Z,22.40
2023-04-18T22:38:30.337Z,19.90
2023-04-18T22:40:59.532Z,20.10
2023-04-18T22:43:27.324Z,17.40
2023-04-18T22:45:55.696Z,18.60
2023-04-18T22:48:23.718Z,17.20
2023-04-18T22:50:51.600Z,17.90
2023-04-18T22:53:19.763Z,17.00
2023-04-18T22:55:48.336Z,17.50
2023-04-18T22:58:16.238Z,15.40
2023-04-18T23:00:44.067Z,17.00
2023-04-18T23:03:12.174Z,19.00
2023-04-18T23:05:41.115Z,14.50
2023-04-18T23:08:09.014Z,18.30
2023-04-18T23:10:36.802Z,14.60
2023-04-18T23:13:04.685Z,17.10
2023-04-18T23:15:32.553Z,15.00
2023-04-18T23:18:00.527Z,19.00
2023-04-18T23:20:28.294Z,18.00
2023-04-18T23:22:56.716Z,17.30
2023-04-18T23:25:24.592Z,15.10
2023-04-18T23:27:52.424Z,12.90
2023-04-18T23:30:20.238Z,16.10
2023-04-18T23:32:48.107Z,14.70
2023-04-18T23:35:15.975Z,14.70
2023-04-18T23:37:43.820Z,15.40
2023-04-18T23:40:11.570Z,15.90
2023-04-18T23:42:39.596Z,16.40
2023-04-18T23:45:08.036Z,13.30
2023-04-18T23:47:36.388Z,16.40
2023-04-18T23:50:04.927Z,15.70
2023-04-18T23:52:32.707Z,14.40
2023-04-18T23:55:01.220Z,15.00
2023-04-18T23:57:29.172Z,14.30
2023-04-18T23:59:56.975Z,16.80
